Time;durP1;ratioP1;P1;durP2;ratioP2;P2;SDS_P1;SDS_P2;PMS_P1;PMS_P2;Temp;Humidity;BMP_temperature;BMP_pressure;BME280_temperature;BME280_humidity;BME280_pressure;Samples;Min_cycle;Max_cycle;Signal;HPM_P1;HPM_P2
2023/01/10 00:01:06;;;;;;;18.57;10.83;;;;;;;;;;5003750;28;20753;-73
2023/01/10 00:03:31;;;;;;;19.00;11.15;;;;;;;;;;5006933;28;20017;-73
2023/01/10 00:05:57;;;;;;;18.80;10.83;;;;;;;;;;5011805;28;20046;-73
2023/01/10 00:08:22;;;;;;;18.77;10.77;;;;;;;;;;5023684;28;20061;-73
2023/01/10 00:10:47;;;;;;;18.60;11.20;;;;;;;;;;5008026;28;20092;-73
2023/01/10 00:13:22;;;;;;;17.73;10.60;;;;;;;;;;5040484;28;20287;-73
2023/01/10 00:15:47;;;;;;;20.75;11.15;;;;;;;;;;5013008;28;20107;-72
2023/01/10 00:18:12;;;;;;;17.25;10.95;;;;;;;;;;5006639;28;20579;-72
2023/01/10 00:20:37;;;;;;;17.97;10.57;;;;;;;;;;5019542;28;20111;-73
2023/01/10 00:23:03;;;;;;;18.37;10.00;;;;;;;;;;5020258;28;20308;-73
2023/01/10 00:25:28;;;;;;;16.70;10.13;;;;;;;;;;4996004;28;20653;-73
2023/01/10 00:28:03;;;;;;;15.18;10.00;;;;;;;;;;4999820;28;20405;-73
2023/01/10 00:30:29;;;;;;;17.70;10.27;;;;;;;;;;5014984;28;20040;-73
2023/01/10 00:32:55;;;;;;;17.02;10.57;;;;;;;;;;5004554;28;20029;-73
2023/01/10 00:35:20;;;;;;;18.27;10.40;;;;;;;;;;5005309;28;20042;-73
2023/01/10 00:37:46;;;;;;;19.47;11.47;;;;;;;;;;4988387;28;20044;-72
2023/01/10 00:40:11;;;;;;;18.47;10.63;;;;;;;;;;5004115;28;20061;-73
2023/01/10 00:45:21;;;;;;;16.95;10.50;;;;;;;;;;4994858;28;20057;-73
2023/01/10 00:47:47;;;;;;;15.63;9.82;;;;;;;;;;5020295;28;20045;-73
2023/01/10 00:50:12;;;;;;;14.98;9.95;;;;;;;;;;4973184;28;20034;-72
2023/01/10 00:52:37;;;;;;;15.70;9.70;;;;;;;;;;5008260;28;20165;-73
2023/01/10 00:55:02;;;;;;;16.13;10.27;;;;;;;;;;5007577;28;20061;-73
2023/01/10 00:57:28;;;;;;;15.73;9.82;;;;;;;;;;5003459;28;20060;-72
2023/01/10 00:59:53;;;;;;;15.60;9.60;;;;;;;;;;5016433;28;20510;-75
2023/01/10 01:02:18;;;;;;;15.07;9.50;;;;;;;;;;5000606;28;20100;-73
2023/01/10 01:04:43;;;;;;;15.37;9.70;;;;;;;;;;4993641;28;20289;-72
2023/01/10 01:07:09;;;;;;;14.73;9.97;;;;;;;;;;5017083;28;20041;-75
2023/01/10 01:10:25;;;;;;;15.20;9.97;;;;;;;;;;5005919;28;20021;-73
2023/01/10 01:12:19;;;;;;;16.67;9.55;;;;;;;;;;5000870;28;20281;-73
2023/01/10 01:14:44;;;;;;;14.23;9.10;;;;;;;;;;5004266;28;20780;-73
2023/01/10 01:17:09;;;;;;;15.07;9.27;;;;;;;;;;5002788;28;20414;-73
2023/01/10 01:19:35;;;;;;;15.70;9.63;;;;;;;;;;5011402;28;20523;-72
2023/01/10 01:22:00;;;;;;;14.25;9.05;;;;;;;;;;5019920;28;20675;-72
2023/01/10 01:24:25;;;;;;;14.77;8.97;;;;;;;;;;5002559;28;20155;-75
2023/01/10 01:26:50;;;;;;;14.30;9.43;;;;;;;;;;4999435;28;20289;-73
2023/01/10 01:29:16;;;;;;;15.60;9.70;;;;;;;;;;4999380;28;20795;-73
2023/01/10 01:31:41;;;;;;;15.80;9.20;;;;;;;;;;5009097;28;20288;-73
2023/01/10 01:34:06;;;;;;;16.27;9.77;;;;;;;;;;5008101;28;20531;-72
2023/01/10 01:36:31;;;;;;;14.40;9.13;;;;;;;;;;5003595;28;20269;-73
2023/01/10 01:38:56;;;;;;;16.52;9.95;;;;;;;;;;4999039;28;20288;-73
2023/01/10 01:44:09;;;;;;;13.40;8.88;;;;;;;;;;5008383;28;20076;-73
2023/01/10 01:46:35;;;;;;;16.63;10.02;;;;;;;;;;4993608;28;20098;-73
2023/01/10 01:49:00;;;;;;;14.80;9.30;;;;;;;;;;4996708;28;20582;-73
2023/01/10 01:51:26;;;;;;;16.58;9.23;;;;;;;;;;5012943;28;20249;-73
2023/01/10 01:53:53;;;;;;;13.65;8.90;;;;;;;;;;5009845;28;20034;-73
2023/01/10 01:56:23;;;;;;;16.27;9.40;;;;;;;;;;4979172;28;20049;-73
2023/01/10 01:58:52;;;;;;;14.70;9.23;;;;;;;;;;4996772;28;20094;-72
2023/01/10 02:01:18;;;;;;;13.18;8.55;;;;;;;;;;4992351;28;20096;-74
2023/01/10 02:03:44;;;;;;;14.13;9.50;;;;;;;;;;5005457;28;20025;-74
2023/01/10 02:06:09;;;;;;;12.05;8.80;;;;;;;;;;5016731;28;20308;-73
2023/01/10 02:08:34;;;;;;;14.10;8.67;;;;;;;;;;5022301;28;20188;-73
2023/01/10 02:11:05;;;;;;;13.23;8.83;;;;;;;;;;5005128;28;20276;-72
2023/01/10 02:13:30;;;;;;;15.13;9.27;;;;;;;;;;4999919;28;20126;-73
2023/01/10 02:15:55;;;;;;;13.37;8.60;;;;;;;;;;5007301;28;20213;-73
2023/01/10 02:18:21;;;;;;;13.33;8.67;;;;;;;;;;4994906;28;21375;-73
2023/01/10 02:21:05;;;;;;;12.88;8.45;;;;;;;;;;4999371;28;20323;-73
2023/01/10 02:23:49;;;;;;;13.40;8.63;;;;;;;;;;5005139;28;20030;-72
2023/01/10 02:26:14;;;;;;;13.68;8.93;;;;;;;;;;4999316;28;20141;-72
2023/01/10 02:28:39;;;;;;;13.43;9.13;;;;;;;;;;5004826;28;20128;-73
2023/01/10 02:31:09;;;;;;;13.90;8.57;;;;;;;;;;5006171;28;20269;-73
2023/01/10 02:33:34;;;;;;;;;;;;;;;;;;5002556;28;20281;-72
2023/01/10 02:36:02;;;;;;;13.93;7.65;;;;;;;;;;5000867;28;19944;-73
2023/01/10 02:38:46;;;;;;;11.65;8.13;;;;;;;;;;5008976;28;20040;-73
2023/01/10 02:41:14;;;;;;;14.15;8.68;;;;;;;;;;5013379;28;20056;-73
2023/01/10 02:43:41;;;;;;;12.32;8.52;;;;;;;;;;5001858;28;20030;-73
2023/01/10 02:46:08;;;;;;;14.23;8.40;;;;;;;;;;4996672;28;20037;-73
2023/01/10 02:48:33;;;;;;;13.07;8.35;;;;;;;;;;4993535;28;20761;-72
2023/01/10 02:51:10;;;;;;;13.32;8.55;;;;;;;;;;4992280;28;20161;-73
2023/01/10 02:53:36;;;;;;;12.02;7.85;;;;;;;;;;4997467;28;20163;-72
2023/01/10 02:56:04;;;;;;;12.95;8.48;;;;;;;;;;5002863;28;20053;-73
2023/01/10 02:58:48;;;;;;;12.60;8.23;;;;;;;;;;5015304;28;20045;-72
2023/01/10 03:01:19;;;;;;;11.98;8.63;;;;;;;;;;5005216;28;20869;-73
2023/01/10 03:03:52;;;;;;;10.20;7.55;;;;;;;;;;4999993;28;20378;-72
2023/01/10 03:06:33;;;;;;;12.73;8.30;;;;;;;;;;4997257;28;20121;-73
2023/01/10 03:09:02;;;;;;;13.20;8.25;;;;;;;;;;5002292;28;20026;-73
2023/01/10 03:11:39;;;;;;;11.38;7.35;;;;;;;;;;4989581;28;20042;-74
2023/01/10 03:14:23;;;;;;;12.15;8.00;;;;;;;;;;5010588;28;20041;-73
2023/01/10 03:16:50;;;;;;;11.25;7.50;;;;;;;;;;5008146;28;20036;-73
2023/01/10 03:19:16;;;;;;;11.65;7.72;;;;;;;;;;5007680;28;20109;-73
2023/01/10 03:21:42;;;;;;;11.90;7.53;;;;;;;;;;4993849;28;20124;-72
2023/01/10 03:24:17;;;;;;;12.65;8.35;;;;;;;;;;5003924;28;20050;-73
2023/01/10 03:26:46;;;;;;;12.75;8.40;;;;;;;;;;4999595;28;20260;-72
2023/01/10 03:29:11;;;;;;;10.73;7.53;;;;;;;;;;5001485;28;20031;-73
2023/01/10 03:31:41;;;;;;;13.30;7.90;;;;;;;;;;5007410;28;20021;-73
2023/01/10 03:34:07;;;;;;;11.98;7.75;;;;;;;;;;5001451;28;20038;-72
2023/01/10 03:36:47;;;;;;;11.88;8.10;;;;;;;;;;4995725;28;20033;-73
2023/01/10 03:39:31;;;;;;;12.15;7.22;;;;;;;;;;4998214;28;20038;-72
2023/01/10 03:42:05;;;;;;;10.95;7.40;;;;;;;;;;4984963;28;20050;-72
2023/01/10 03:44:42;;;;;;;12.73;8.60;;;;;;;;;;4985276;28;20026;-72
2023/01/10 03:47:26;;;;;;;11.02;7.88;;;;;;;;;;4979559;28;20026;-73
2023/01/10 03:49:55;;;;;;;12.45;7.90;;;;;;;;;;4979857;28;20102;-73
2023/01/10 03:52:21;;;;;;;12.57;8.75;;;;;;;;;;4987132;28;20037;-72
2023/01/10 03:54:46;;;;;;;12.45;7.97;;;;;;;;;;4978660;28;20068;-74
2023/01/10 03:57:21;;;;;;;11.48;7.40;;;;;;;;;;4976253;28;20704;-74
2023/01/10 03:59:47;;;;;;;12.98;8.20;;;;;;;;;;4984706;28;20146;-74
2023/01/10 04:02:12;;;;;;;10.77;7.47;;;;;;;;;;4994230;28;20156;-73
2023/01/10 04:04:37;;;;;;;10.52;7.40;;;;;;;;;;4988395;28;20493;-72
2023/01/10 04:07:02;;;;;;;11.07;7.75;;;;;;;;;;4979121;28;20124;-71
2023/01/10 04:09:28;;;;;;;11.70;7.32;;;;;;;;;;4995228;28;20515;-72
2023/01/10 04:11:53;;;;;;;11.17;7.77;;;;;;;;;;4984477;28;20042;-73
2023/01/10 04:14:18;;;;;;;10.93;7.20;;;;;;;;;;4989240;28;20112;-73
2023/01/10 04:16:43;;;;;;;10.93;7.63;;;;;;;;;;4991018;28;20284;-71
2023/01/10 04:19:09;;;;;;;10.52;7.63;;;;;;;;;;4981357;28;20288;-73
2023/01/10 04:21:34;;;;;;;10.70;7.10;;;;;;;;;;4984417;28;20038;-70
2023/01/10 04:23:59;;;;;;;10.40;7.30;;;;;;;;;;4987094;28;20097;-72
2023/01/10 04:26:24;;;;;;;11.40;7.43;;;;;;;;;;4980537;28;20148;-72
2023/01/10 04:28:49;;;;;;;10.00;7.32;;;;;;;;;;4982086;28;20031;-72
2023/01/10 04:31:15;;;;;;;10.17;7.17;;;;;;;;;;4964803;28;20041;-74
2023/01/10 04:33:40;;;;;;;10.60;7.00;;;;;;;;;;4965551;28;20788;-71
2023/01/10 04:36:05;;;;;;;10.80;7.57;;;;;;;;;;4962677;28;20365;-73
2023/01/10 04:38:31;;;;;;;9.63;6.85;;;;;;;;;;4975049;28;20289;-73
2023/01/10 04:40:56;;;;;;;10.88;7.18;;;;;;;;;;4969630;28;20510;-73
2023/01/10 04:43:22;;;;;;;11.90;7.63;;;;;;;;;;4967095;28;20065;-73
2023/01/10 04:45:47;;;;;;;10.30;7.15;;;;;;;;;;4982136;28;20076;-73
2023/01/10 04:48:12;;;;;;;10.03;6.67;;;;;;;;;;4982374;28;20026;-72
2023/01/10 04:50:38;;;;;;;9.87;6.67;;;;;;;;;;4977694;28;20278;-73
2023/01/10 04:53:03;;;;;;;9.77;6.60;;;;;;;;;;4993979;28;20124;-72
2023/01/10 04:55:28;;;;;;;12.63;6.80;;;;;;;;;;5002796;28;20120;-73
2023/01/10 04:57:53;;;;;;;9.50;6.80;;;;;;;;;;4999699;28;20783;-73
2023/01/10 05:00:19;;;;;;;9.40;6.80;;;;;;;;;;4998830;28;20800;-72
2023/01/10 05:02:44;;;;;;;8.82;6.40;;;;;;;;;;5004002;28;20148;-73
2023/01/10 05:05:12;;;;;;;9.00;6.50;;;;;;;;;;5001690;28;20030;-72
2023/01/10 05:07:38;;;;;;;8.70;6.03;;;;;;;;;;4989418;28;20552;-74
2023/01/10 05:10:03;;;;;;;9.93;6.70;;;;;;;;;;4993752;28;20026;-73
2023/01/10 05:12:29;;;;;;;9.32;6.32;;;;;;;;;;4974742;28;20018;-73
2023/01/10 05:14:54;;;;;;;8.63;6.37;;;;;;;;;;5009903;28;20133;-74
2023/01/10 05:17:19;;;;;;;9.10;6.87;;;;;;;;;;5003767;28;20340;-74
2023/01/10 05:19:45;;;;;;;9.43;6.50;;;;;;;;;;5004681;28;20065;-74
2023/01/10 05:22:10;;;;;;;8.75;6.03;;;;;;;;;;5009673;28;20296;-76
2023/01/10 05:24:35;;;;;;;9.25;5.93;;;;;;;;;;5007016;28;20022;-74
2023/01/10 05:27:01;;;;;;;8.73;6.07;;;;;;;;;;5003951;28;20140;-73
2023/01/10 05:29:26;;;;;;;8.50;6.13;;;;;;;;;;4987118;28;20281;-72
2023/01/10 05:31:52;;;;;;;8.33;5.67;;;;;;;;;;5001860;28;20147;-72
2023/01/10 05:34:18;;;;;;;9.48;6.22;;;;;;;;;;5011161;28;20726;-72
2023/01/10 05:36:43;;;;;;;9.73;6.60;;;;;;;;;;5013297;28;20124;-74
2023/01/10 05:39:08;;;;;;;8.70;6.00;;;;;;;;;;5002284;28;20117;-73
2023/01/10 05:41:33;;;;;;;8.05;6.10;;;;;;;;;;5020561;28;20751;-75
2023/01/10 05:43:58;;;;;;;8.40;6.03;;;;;;;;;;5023716;28;20147;-75
2023/01/10 05:46:24;;;;;;;8.70;5.53;;;;;;;;;;5000271;28;20030;-74
2023/01/10 05:48:50;;;;;;;8.63;6.20;;;;;;;;;;4993942;28;20018;-72
2023/01/10 05:51:15;;;;;;;7.57;5.68;;;;;;;;;;5008274;28;20613;-71
2023/01/10 05:53:42;;;;;;;8.63;5.60;;;;;;;;;;5009407;28;20026;-74
2023/01/10 05:56:07;;;;;;;8.30;5.88;;;;;;;;;;4998241;28;21103;-73
2023/01/10 05:58:33;;;;;;;10.00;6.30;;;;;;;;;;5001209;28;20054;-74
2023/01/10 06:00:58;;;;;;;8.67;6.03;;;;;;;;;;5004184;28;20137;-76
2023/01/10 06:03:25;;;;;;;6.87;5.37;;;;;;;;;;5002395;28;20943;-75
2023/01/10 06:05:50;;;;;;;8.00;5.55;;;;;;;;;;5001747;28;20288;-73
2023/01/10 06:08:15;;;;;;;6.80;5.03;;;;;;;;;;5001122;28;20152;-74
2023/01/10 06:10:41;;;;;;;6.70;5.30;;;;;;;;;;5012331;28;20284;-74
2023/01/10 06:13:08;;;;;;;7.40;5.63;;;;;;;;;;4989451;28;20373;-72
2023/01/10 06:15:34;;;;;;;7.68;5.72;;;;;;;;;;5002636;28;20117;-71
2023/01/10 06:17:59;;;;;;;6.95;5.20;;;;;;;;;;5002828;28;20120;-72
2023/01/10 06:20:24;;;;;;;7.17;5.10;;;;;;;;;;5010822;28;20753;-72
2023/01/10 06:22:49;;;;;;;7.67;5.47;;;;;;;;;;5006245;28;20464;-72
2023/01/10 06:25:15;;;;;;;6.57;5.07;;;;;;;;;;4993403;28;20038;-73
2023/01/10 06:27:40;;;;;;;6.95;5.18;;;;;;;;;;5000279;28;20272;-73
2023/01/10 06:30:06;;;;;;;7.65;5.40;;;;;;;;;;5004766;28;20022;-72
2023/01/10 06:32:31;;;;;;;7.22;5.40;;;;;;;;;;5005235;28;20152;-71
2023/01/10 06:34:57;;;;;;;7.13;5.27;;;;;;;;;;5004566;28;20455;-72
2023/01/10 06:37:22;;;;;;;6.88;4.95;;;;;;;;;;5002950;28;20288;-72
2023/01/10 06:39:47;;;;;;;6.65;5.13;;;;;;;;;;4998651;28;20026;-72
2023/01/10 06:42:12;;;;;;;6.82;5.05;;;;;;;;;;5010500;28;20230;-71
2023/01/10 06:44:37;;;;;;;6.63;5.03;;;;;;;;;;5019744;28;20524;-72
2023/01/10 06:47:03;;;;;;;8.47;5.37;;;;;;;;;;4995556;28;20766;-71
2023/01/10 06:49:28;;;;;;;7.70;5.20;;;;;;;;;;5013442;28;20409;-71
2023/01/10 06:51:54;;;;;;;8.90;5.32;;;;;;;;;;5004223;28;20587;-71
2023/01/10 06:54:19;;;;;;;8.60;5.10;;;;;;;;;;5006589;28;20036;-73
2023/01/10 06:56:46;;;;;;;8.00;5.27;;;;;;;;;;5005379;28;20076;-69
2023/01/10 06:59:11;;;;;;;7.32;4.90;;;;;;;;;;4997785;28;20376;-72
2023/01/10 07:01:36;;;;;;;8.10;4.95;;;;;;;;;;5004966;28;20145;-70
2023/01/10 07:04:01;;;;;;;7.90;4.70;;;;;;;;;;5002854;28;20499;-70
2023/01/10 07:06:27;;;;;;;6.20;4.60;;;;;;;;;;5006135;28;20049;-70
2023/01/10 07:08:53;;;;;;;7.77;4.93;;;;;;;;;;5006751;28;20512;-72
2023/01/10 07:11:18;;;;;;;9.77;5.07;;;;;;;;;;4987777;28;20044;-70
2023/01/10 07:13:43;;;;;;;7.93;5.03;;;;;;;;;;5001125;28;20050;-71
2023/01/10 07:16:09;;;;;;;6.07;4.60;;;;;;;;;;5000984;28;20304;-73
2023/01/10 07:18:35;;;;;;;6.97;4.97;;;;;;;;;;5005049;28;20273;-73
2023/01/10 07:21:00;;;;;;;6.60;4.95;;;;;;;;;;5005336;28;20081;-71
2023/01/10 07:23:25;;;;;;;6.30;4.32;;;;;;;;;;5005570;28;20042;-72
2023/01/10 07:25:50;;;;;;;6.73;4.60;;;;;;;;;;5007526;28;20034;-72
2023/01/10 07:28:16;;;;;;;9.27;5.07;;;;;;;;;;5004137;28;20299;-71
2023/01/10 07:30:41;;;;;;;7.80;4.93;;;;;;;;;;5005787;28;20768;-72
2023/01/10 07:33:06;;;;;;;6.77;4.80;;;;;;;;;;4991057;28;20528;-71
2023/01/10 07:35:31;;;;;;;6.43;4.72;;;;;;;;;;5000614;28;20457;-71
2023/01/10 07:37:57;;;;;;;6.80;5.10;;;;;;;;;;5005411;28;20145;-72
2023/01/10 07:40:22;;;;;;;6.55;4.63;;;;;;;;;;4992602;28;20289;-72
2023/01/10 07:42:48;;;;;;;6.47;4.50;;;;;;;;;;5011108;28;20061;-71
2023/01/10 07:45:14;;;;;;;6.68;4.30;;;;;;;;;;5004821;28;21161;-70
2023/01/10 07:47:39;;;;;;;6.57;4.72;;;;;;;;;;4995640;28;20038;-71
2023/01/10 07:50:05;;;;;;;7.27;4.77;;;;;;;;;;4981801;28;20049;-71
2023/01/10 07:52:31;;;;;;;7.40;4.82;;;;;;;;;;4992397;28;20293;-71
2023/01/10 07:54:56;;;;;;;6.28;4.55;;;;;;;;;;4987616;28;20516;-71
2023/01/10 07:57:21;;;;;;;7.53;4.70;;;;;;;;;;4991653;28;20551;-71
2023/01/10 07:59:47;;;;;;;5.97;4.10;;;;;;;;;;5000480;28;20485;-70
2023/01/10 08:02:12;;;;;;;6.00;5.00;;;;;;;;;;5004552;28;20048;-71
2023/01/10 08:04:37;;;;;;;6.70;4.57;;;;;;;;;;4999241;28;20819;-71
2023/01/10 08:07:03;;;;;;;6.43;4.50;;;;;;;;;;4996041;28;20050;-71
2023/01/10 08:09:28;;;;;;;7.13;5.10;;;;;;;;;;5005341;28;20028;-71
2023/01/10 08:11:53;;;;;;;7.87;4.67;;;;;;;;;;5002988;28;20488;-71
2023/01/10 08:14:18;;;;;;;6.93;4.40;;;;;;;;;;5004417;28;20551;-71
2023/01/10 08:16:43;;;;;;;6.83;4.67;;;;;;;;;;5002522;28;20574;-70
2023/01/10 08:19:11;;;;;;;5.40;4.47;;;;;;;;;;5001951;28;20517;-71
2023/01/10 08:21:36;;;;;;;7.68;4.57;;;;;;;;;;5004384;28;20033;-71
2023/01/10 08:24:01;;;;;;;5.97;4.60;;;;;;;;;;5003671;28;20060;-71
2023/01/10 08:26:27;;;;;;;7.45;4.78;;;;;;;;;;5000943;28;20055;-71
2023/01/10 08:28:52;;;;;;;6.03;4.67;;;;;;;;;;5003564;28;20580;-71
2023/01/10 08:31:17;;;;;;;6.17;4.20;;;;;;;;;;5001221;28;20485;-72
2023/01/10 08:33:42;;;;;;;7.40;4.57;;;;;;;;;;4997323;28;20754;-75
2023/01/10 08:36:15;;;;;;;7.22;5.03;;;;;;;;;;5009036;28;20288;-74
2023/01/10 08:38:40;;;;;;;9.35;4.82;;;;;;;;;;4989802;28;20100;-74
2023/01/10 08:41:05;;;;;;;9.07;5.07;;;;;;;;;;5003196;28;20143;-73
2023/01/10 08:43:31;;;;;;;7.73;4.90;;;;;;;;;;5003119;28;20093;-74
2023/01/10 08:45:56;;;;;;;7.50;4.70;;;;;;;;;;4998728;28;20088;-74
2023/01/10 08:48:21;;;;;;;6.20;4.33;;;;;;;;;;5001999;28;20295;-74
2023/01/10 08:50:46;;;;;;;6.80;4.53;;;;;;;;;;5007483;28;20798;-75
2023/01/10 08:53:12;;;;;;;6.17;3.80;;;;;;;;;;5010118;28;20501;-74
2023/01/10 08:55:37;;;;;;;7.30;4.68;;;;;;;;;;4997438;28;20282;-73
2023/01/10 08:58:03;;;;;;;7.47;4.83;;;;;;;;;;5015041;28;20175;-74
2023/01/10 09:00:28;;;;;;;6.83;4.70;;;;;;;;;;4999644;28;20101;-74
2023/01/10 09:02:53;;;;;;;6.53;4.72;;;;;;;;;;5000909;28;20128;-73
2023/01/10 09:05:18;;;;;;;7.37;4.53;;;;;;;;;;5000688;28;20139;-75
2023/01/10 09:07:45;;;;;;;7.53;5.07;;;;;;;;;;5002620;28;20830;-74
2023/01/10 09:10:10;;;;;;;6.78;4.53;;;;;;;;;;5018797;28;20037;-74
2023/01/10 09:12:54;;;;;;;6.40;4.50;;;;;;;;;;4999549;28;20121;-75
2023/01/10 09:15:20;;;;;;;7.60;4.65;;;;;;;;;;5004619;28;20034;-75
2023/01/10 09:17:45;;;;;;;7.30;4.43;;;;;;;;;;5005033;28;20037;-74
2023/01/10 09:20:10;;;;;;;5.95;4.47;;;;;;;;;;4992884;28;20129;-74
2023/01/10 09:22:36;;;;;;;6.47;4.43;;;;;;;;;;4997857;28;20120;-74
2023/01/10 09:25:02;;;;;;;6.82;4.50;;;;;;;;;;4992586;28;20619;-73
2023/01/10 09:27:27;;;;;;;6.70;4.43;;;;;;;;;;4995325;28;20022;-74
2023/01/10 09:29:52;;;;;;;7.88;4.90;;;;;;;;;;4999278;28;20053;-74
2023/01/10 09:32:18;;;;;;;6.80;5.00;;;;;;;;;;5001713;28;20535;-73
2023/01/10 09:34:43;;;;;;;6.60;4.70;;;;;;;;;;5002917;28;20335;-73
2023/01/10 09:37:09;;;;;;;6.53;4.77;;;;;;;;;;5002208;28;20176;-73
2023/01/10 09:39:34;;;;;;;8.20;5.03;;;;;;;;;;5015289;28;20290;-73
2023/01/10 09:41:59;;;;;;;7.50;5.00;;;;;;;;;;5001511;28;20309;-73
2023/01/10 09:44:33;;;;;;;6.67;4.77;;;;;;;;;;5004451;28;20289;-72
2023/01/10 09:46:59;;;;;;;5.53;4.43;;;;;;;;;;4987997;28;20128;-72
2023/01/10 09:49:33;;;;;;;7.20;5.00;;;;;;;;;;4996899;28;20121;-73
2023/01/10 09:51:58;;;;;;;6.50;4.47;;;;;;;;;;5003079;28;20339;-75
2023/01/10 09:54:27;;;;;;;7.32;4.95;;;;;;;;;;4998976;28;20030;-80
2023/01/10 09:56:52;;;;;;;7.10;4.57;;;;;;;;;;4995755;28;20038;-71
2023/01/10 09:59:25;;;;;;;6.78;4.40;;;;;;;;;;5003101;28;20110;-73
2023/01/10 10:01:56;;;;;;;6.65;4.40;;;;;;;;;;5004704;28;20597;-72
2023/01/10 10:04:35;;;;;;;7.47;4.82;;;;;;;;;;5004059;28;20130;-72
2023/01/10 10:07:00;;;;;;;5.93;4.43;;;;;;;;;;5001781;28;20390;-72
2023/01/10 10:09:29;;;;;;;6.35;4.68;;;;;;;;;;4996302;28;20078;-72
2023/01/10 10:12:01;;;;;;;7.30;4.90;;;;;;;;;;4997934;28;20156;-72
2023/01/10 10:14:41;;;;;;;6.97;4.78;;;;;;;;;;5014552;28;20042;-72
2023/01/10 10:17:06;;;;;;;;;;;;;;;;;;5002341;28;20034;-72
2023/01/10 10:19:46;;;;;;;5.78;4.40;;;;;;;;;;5006527;28;20040;-72
2023/01/10 10:22:15;;;;;;;5.68;4.22;;;;;;;;;;5001069;28;20054;-72
2023/01/10 10:24:40;;;;;;;6.53;4.63;;;;;;;;;;4981692;28;20022;-73
2023/01/10 10:27:07;;;;;;;6.40;4.70;;;;;;;;;;4965280;28;20049;-72
2023/01/10 10:29:35;;;;;;;5.78;4.22;;;;;;;;;;4971590;28;20035;-72
2023/01/10 10:32:00;;;;;;;7.05;4.93;;;;;;;;;;4989938;28;20030;-74
2023/01/10 10:34:43;;;;;;;6.17;4.30;;;;;;;;;;4996319;28;20046;-73
2023/01/10 10:37:31;;;;;;;6.40;4.57;;;;;;;;;;4968329;28;20030;-72
2023/01/10 10:39:58;;;;;;;6.10;4.50;;;;;;;;;;4982481;28;20728;-71
2023/01/10 10:42:27;;;;;;;6.60;4.57;;;;;;;;;;4968569;28;20030;-73
2023/01/10 10:44:59;;;;;;;6.15;4.20;;;;;;;;;;4980620;28;20149;-72
2023/01/10 10:47:26;;;;;;;6.32;4.57;;;;;;;;;;5010805;28;20030;-71
2023/01/10 10:49:52;;;;;;;6.10;4.50;;;;;;;;;;4999892;28;20034;-72
2023/01/10 10:52:22;;;;;;;6.47;4.67;;;;;;;;;;4996604;28;20050;-71
2023/01/10 10:54:47;;;;;;;;;;;;;;;;;;4962005;28;20830;-72
2023/01/10 10:57:12;;;;;;;6.65;4.53;;;;;;;;;;4977324;28;20393;-73
2023/01/10 10:59:37;;;;;;;6.57;4.53;;;;;;;;;;4982644;28;20078;-72
2023/01/10 11:02:07;;;;;;;6.40;4.30;;;;;;;;;;4972668;28;20828;-72
2023/01/10 11:04:33;;;;;;;6.03;4.50;;;;;;;;;;4987272;28;20087;-72
2023/01/10 11:06:58;;;;;;;6.10;4.20;;;;;;;;;;4984577;28;20054;-71
2023/01/10 11:09:39;;;;;;;5.90;4.60;;;;;;;;;;4977973;28;20412;-70
2023/01/10 11:12:04;;;;;;;6.65;4.72;;;;;;;;;;4978676;28;20645;-71
2023/01/10 11:14:46;;;;;;;6.57;4.50;;;;;;;;;;4971626;28;20042;-72
2023/01/10 11:17:18;;;;;;;5.75;4.43;;;;;;;;;;4979775;28;20393;-72
2023/01/10 11:19:53;;;;;;;6.47;4.30;;;;;;;;;;4984653;28;20034;-72
2023/01/10 11:22:18;;;;;;;6.10;4.00;;;;;;;;;;4993973;28;20112;-72
2023/01/10 11:24:50;;;;;;;6.90;4.80;;;;;;;;;;4985914;28;20038;-72
2023/01/10 11:27:15;;;;;;;6.78;4.95;;;;;;;;;;5001597;28;20038;-72
2023/01/10 11:29:47;;;;;;;6.20;4.80;;;;;;;;;;4999716;28;20033;-72
2023/01/10 11:32:14;;;;;;;7.40;5.28;;;;;;;;;;5003760;28;20034;-73
2023/01/10 11:34:39;;;;;;;6.57;4.60;;;;;;;;;;5003264;28;20476;-74
2023/01/10 11:37:16;;;;;;;6.68;4.80;;;;;;;;;;5004995;28;20030;-75
2023/01/10 11:39:41;;;;;;;6.10;4.55;;;;;;;;;;4998007;28;20015;-71
2023/01/10 11:42:28;;;;;;;6.07;4.63;;;;;;;;;;5002992;28;20080;-72
2023/01/10 11:44:53;;;;;;;5.38;4.20;;;;;;;;;;4995902;28;20288;-70
2023/01/10 11:47:19;;;;;;;6.30;4.40;;;;;;;;;;5004687;28;20440;-71
2023/01/10 11:49:44;;;;;;;6.00;4.57;;;;;;;;;;4986407;28;20041;-72
2023/01/10 11:52:30;;;;;;;5.70;4.60;;;;;;;;;;4992900;28;20376;-72
2023/01/10 11:54:59;;;;;;;7.35;4.75;;;;;;;;;;4985584;28;20269;-72
2023/01/10 11:57:28;;;;;;;4.90;3.88;;;;;;;;;;5004267;28;20033;-72
2023/01/10 11:59:55;;;;;;;6.05;4.72;;;;;;;;;;5005158;28;20049;-71
2023/01/10 12:02:27;;;;;;;6.35;4.65;;;;;;;;;;5007983;28;20177;-71
2023/01/10 12:04:52;;;;;;;6.38;4.60;;;;;;;;;;4995681;28;20121;-71
2023/01/10 12:07:18;;;;;;;5.60;4.57;;;;;;;;;;5000234;28;20117;-71
2023/01/10 12:09:44;;;;;;;5.67;4.40;;;;;;;;;;5002698;28;20413;-71
2023/01/10 12:12:17;;;;;;;6.72;4.95;;;;;;;;;;4999341;28;20315;-71
2023/01/10 12:14:42;;;;;;;6.72;4.95;;;;;;;;;;4994094;28;20038;-72
2023/01/10 12:17:34;;;;;;;5.47;4.63;;;;;;;;;;4995790;28;20183;-72
2023/01/10 12:20:00;;;;;;;7.80;5.50;;;;;;;;;;5003438;28;20040;-71
2023/01/10 12:22:37;;;;;;;6.53;4.60;;;;;;;;;;4998128;28;20042;-72
2023/01/10 12:25:04;;;;;;;5.97;4.50;;;;;;;;;;5001041;28;20014;-72
2023/01/10 12:27:29;;;;;;;5.93;4.65;;;;;;;;;;4997191;28;20070;-71
2023/01/10 12:30:00;;;;;;;6.38;4.85;;;;;;;;;;4999673;28;20097;-70
2023/01/10 12:32:26;;;;;;;7.93;5.28;;;;;;;;;;4993902;28;20508;-71
2023/01/10 12:35:12;;;;;;;6.10;4.90;;;;;;;;;;4988420;28;20153;-73
2023/01/10 12:37:47;;;;;;;6.60;4.65;;;;;;;;;;4984311;28;20029;-71
2023/01/10 12:40:28;;;;;;;6.40;4.80;;;;;;;;;;4996622;28;20058;-71
2023/01/10 12:45:46;;;;;;;6.20;4.50;;;;;;;;;;4997463;28;20029;-71
2023/01/10 12:48:13;;;;;;;5.53;4.53;;;;;;;;;;5003553;28;20309;-71
2023/01/10 12:50:40;;;;;;;6.32;4.57;;;;;;;;;;4990259;28;20088;-71
2023/01/10 12:53:24;;;;;;;6.55;4.95;;;;;;;;;;4979898;28;20026;-75
2023/01/10 12:55:49;;;;;;;7.40;5.00;;;;;;;;;;4998876;28;20048;-71
2023/01/10 12:58:20;;;;;;;7.20;4.90;;;;;;;;;;4997854;28;20117;-71
2023/01/10 13:00:45;;;;;;;7.00;5.00;;;;;;;;;;4998828;28;20378;-71
2023/01/10 13:03:12;;;;;;;6.35;5.05;;;;;;;;;;5002099;28;20441;-72
2023/01/10 13:05:37;;;;;;;6.25;4.97;;;;;;;;;;5003644;28;20026;-71
2023/01/10 13:08:03;;;;;;;6.50;4.73;;;;;;;;;;4998765;28;20049;-71
2023/01/10 13:10:29;;;;;;;5.72;4.55;;;;;;;;;;5002289;28;20664;-72
2023/01/10 13:12:56;;;;;;;6.18;5.18;;;;;;;;;;5003929;28;20024;-71
2023/01/10 13:15:29;;;;;;;5.93;4.70;;;;;;;;;;4984256;28;20022;-71
2023/01/10 13:18:15;;;;;;;8.05;4.55;;;;;;;;;;4998821;28;20632;-71
2023/01/10 13:20:40;;;;;;;5.28;4.47;;;;;;;;;;4995058;28;20030;-70
2023/01/10 13:23:22;;;;;;;6.35;4.38;;;;;;;;;;5016018;28;20049;-71
2023/01/10 13:25:54;;;;;;;6.35;4.65;;;;;;;;;;4997381;28;20041;-71
2023/01/10 13:28:21;;;;;;;6.50;5.00;;;;;;;;;;4998222;28;20040;-71
2023/01/10 13:30:50;;;;;;;6.55;4.70;;;;;;;;;;4996359;28;20010;-71
2023/01/10 13:33:15;;;;;;;6.30;4.70;;;;;;;;;;4996628;28;20464;-71
2023/01/10 13:35:41;;;;;;;5.90;4.60;;;;;;;;;;4999186;28;20056;-72
2023/01/10 13:38:14;;;;;;;7.03;5.13;;;;;;;;;;4981358;28;21136;-71
2023/01/10 13:40:40;;;;;;;5.90;4.40;;;;;;;;;;4999271;28;20042;-73
2023/01/10 13:43:32;;;;;;;6.33;4.60;;;;;;;;;;4985279;28;20036;-71
2023/01/10 13:46:17;;;;;;;6.53;5.00;;;;;;;;;;4975487;28;20816;-71
2023/01/10 13:49:08;;;;;;;7.28;5.10;;;;;;;;;;4996757;28;20129;-71
2023/01/10 13:51:35;;;;;;;6.70;4.78;;;;;;;;;;5002264;28;20117;-71
2023/01/10 13:54:00;;;;;;;6.55;5.10;;;;;;;;;;4997839;28;20161;-71
2023/01/10 13:56:33;;;;;;;6.15;4.72;;;;;;;;;;4980713;28;20160;-71
2023/01/10 14:04:27;;;;;;;6.20;4.93;;;;;;;;;;5010323;28;20125;-71
2023/01/10 14:06:59;;;;;;;6.22;4.70;;;;;;;;;;5009380;28;20042;-71
2023/01/10 14:09:34;;;;;;;7.40;5.10;;;;;;;;;;4998325;28;20033;-71
2023/01/10 14:12:00;;;;;;;6.18;4.60;;;;;;;;;;5001965;28;20044;-71
2023/01/10 14:14:27;;;;;;;5.78;4.75;;;;;;;;;;4998803;28;20034;-71
2023/01/10 14:16:54;;;;;;;5.65;4.68;;;;;;;;;;4994712;28;20034;-71
2023/01/10 14:19:24;;;;;;;6.38;4.72;;;;;;;;;;4997237;28;20029;-71
2023/01/10 14:21:55;;;;;;;5.85;4.55;;;;;;;;;;4992922;28;21304;-72
2023/01/10 14:24:22;;;;;;;6.43;4.82;;;;;;;;;;5013311;28;20052;-71
2023/01/10 14:26:48;;;;;;;6.22;4.63;;;;;;;;;;4980456;28;20037;-72
2023/01/10 14:29:14;;;;;;;5.97;4.60;;;;;;;;;;4995060;28;20034;-71
2023/01/10 14:31:46;;;;;;;7.10;4.97;;;;;;;;;;4984052;28;20308;-71
2023/01/10 14:34:13;;;;;;;5.75;4.60;;;;;;;;;;4991214;28;20034;-71
2023/01/10 14:36:58;;;;;;;5.15;4.50;;;;;;;;;;4993740;28;20030;-72
2023/01/10 14:39:24;;;;;;;6.80;4.70;;;;;;;;;;4976430;28;20536;-71
2023/01/10 14:41:50;;;;;;;5.57;4.40;;;;;;;;;;4987982;28;20042;-70
2023/01/10 14:44:17;;;;;;;6.32;4.82;;;;;;;;;;4967527;28;20046;-72
2023/01/10 14:46:49;;;;;;;6.00;4.53;;;;;;;;;;4973449;28;20118;-71
2023/01/10 14:49:25;;;;;;;5.60;4.43;;;;;;;;;;4968280;28;20424;-71
2023/01/10 14:51:50;;;;;;;5.63;4.70;;;;;;;;;;4992230;28;20019;-71
2023/01/10 14:54:17;;;;;;;5.82;4.18;;;;;;;;;;4989415;28;20117;-70
2023/01/10 14:56:42;;;;;;;5.78;4.53;;;;;;;;;;5013612;28;20093;-70